sensor_id;sensor_type;location;lat;lon;timestamp;temperature;humidity
53962;DHT22;39868;53.398;6.564;2024-03-25T00:00:10;8.90;87.10
53962;DHT22;39868;53.398;6.564;2024-03-25T00:02:38;8.90;87.10
53962;DHT22;39868;53.398;6.564;2024-03-25T00:05:05;9.00;87.20
53962;DHT22;39868;53.398;6.564;2024-03-25T00:07:33;9.00;87.30
53962;DHT22;39868;53.398;6.564;2024-03-25T00:09:59;9.00;87.20
53962;DHT22;39868;53.398;6.564;2024-03-25T00:12:26;9.00;87.00
53962;DHT22;39868;53.398;6.564;2024-03-25T00:14:52;9.00;86.80
53962;DHT22;39868;53.398;6.564;2024-03-25T00:17:18;9.10;86.70
53962;DHT22;39868;53.398;6.564;2024-03-25T00:19:46;9.10;86.60
53962;DHT22;39868;53.398;6.564;2024-03-25T00:22:18;9.10;86.50
53962;DHT22;39868;53.398;6.564;2024-03-25T00:24:48;9.10;86.40
53962;DHT22;39868;53.398;6.564;2024-03-25T00:27:15;9.10;86.10
53962;DHT22;39868;53.398;6.564;2024-03-25T00:29:41;9.10;86.00
53962;DHT22;39868;53.398;6.564;2024-03-25T00:32:07;9.10;85.90
53962;DHT22;39868;53.398;6.564;2024-03-25T00:34:34;9.10;85.80
53962;DHT22;39868;53.398;6.564;2024-03-25T00:37:00;9.20;86.00
53962;DHT22;39868;53.398;6.564;2024-03-25T00:39:27;9.20;85.90
53962;DHT22;39868;53.398;6.564;2024-03-25T00:41:55;9.20;85.90
53962;DHT22;39868;53.398;6.564;2024-03-25T00:44:21;9.20;86.00
53962;DHT22;39868;53.398;6.564;2024-03-25T00:46:47;9.20;86.30
53962;DHT22;39868;53.398;6.564;2024-03-25T00:49:13;9.20;85.80
53962;DHT22;39868;53.398;6.564;2024-03-25T00:51:39;9.20;85.80
53962;DHT22;39868;53.398;6.564;2024-03-25T00:54:06;9.30;85.60
53962;DHT22;39868;53.398;6.564;2024-03-25T00:56:32;9.30;85.20
53962;DHT22;39868;53.398;6.564;2024-03-25T00:58:58;9.30;84.90
53962;DHT22;39868;53.398;6.564;2024-03-25T01:01:34;9.30;84.80
53962;DHT22;39868;53.398;6.564;2024-03-25T01:04:04;9.20;84.60
53962;DHT22;39868;53.398;6.564;2024-03-25T01:06:31;9.20;84.40
53962;DHT22;39868;53.398;6.564;2024-03-25T01:08:57;9.30;84.40
53962;DHT22;39868;53.398;6.564;2024-03-25T01:11:23;9.30;84.20
53962;DHT22;39868;53.398;6.564;2024-03-25T01:13:50;9.20;84.20
53962;DHT22;39868;53.398;6.564;2024-03-25T01:16:16;9.20;84.20
53962;DHT22;39868;53.398;6.564;2024-03-25T01:18:42;9.20;84.20
53962;DHT22;39868;53.398;6.564;2024-03-25T01:21:08;9.20;84.40
53962;DHT22;39868;53.398;6.564;2024-03-25T01:23:35;9.20;84.20
53962;DHT22;39868;53.398;6.564;2024-03-25T01:26:01;9.20;84.50
53962;DHT22;39868;53.398;6.564;2024-03-25T01:28:27;9.30;84.60
53962;DHT22;39868;53.398;6.564;2024-03-25T01:30:53;9.30;84.60
53962;DHT22;39868;53.398;6.564;2024-03-25T01:33:20;9.30;84.60
53962;DHT22;39868;53.398;6.564;2024-03-25T01:35:46;9.30;84.70
53962;DHT22;39868;53.398;6.564;2024-03-25T01:38:12;9.30;84.80
53962;DHT22;39868;53.398;6.564;2024-03-25T01:40:38;9.30;84.80
53962;DHT22;39868;53.398;6.564;2024-03-25T01:43:05;9.30;84.90
53962;DHT22;39868;53.398;6.564;2024-03-25T01:45:33;9.30;84.90
53962;DHT22;39868;53.398;6.564;2024-03-25T01:48:02;9.30;84.90
53962;DHT22;39868;53.398;6.564;2024-03-25T01:50:34;9.30;85.00
53962;DHT22;39868;53.398;6.564;2024-03-25T01:53:02;9.30;85.00
53962;DHT22;39868;53.398;6.564;2024-03-25T01:55:29;9.30;85.10
53962;DHT22;39868;53.398;6.564;2024-03-25T01:57:56;9.30;85.10
53962;DHT22;39868;53.398;6.564;2024-03-25T02:00:26;9.30;85.10
53962;DHT22;39868;53.398;6.564;2024-03-25T02:02:53;9.30;85.10
53962;DHT22;39868;53.398;6.564;2024-03-25T02:05:20;9.30;85.30
53962;DHT22;39868;53.398;6.564;2024-03-25T02:07:48;9.30;85.30
53962;DHT22;39868;53.398;6.564;2024-03-25T02:10:14;9.30;85.20
53962;DHT22;39868;53.398;6.564;2024-03-25T02:12:45;9.30;85.00
53962;DHT22;39868;53.398;6.564;2024-03-25T02:15:12;9.30;84.50
53962;DHT22;39868;53.398;6.564;2024-03-25T02:17:39;9.30;84.00
53962;DHT22;39868;53.398;6.564;2024-03-25T02:20:06;9.30;83.50
53962;DHT22;39868;53.398;6.564;2024-03-25T02:22:35;9.20;83.50
53962;DHT22;39868;53.398;6.564;2024-03-25T02:25:10;9.20;83.00
53962;DHT22;39868;53.398;6.564;2024-03-25T02:27:37;9.20;82.70
53962;DHT22;39868;53.398;6.564;2024-03-25T02:30:09;9.20;82.20
53962;DHT22;39868;53.398;6.564;2024-03-25T02:32:36;9.20;81.50
53962;DHT22;39868;53.398;6.564;2024-03-25T02:35:12;9.20;81.30
53962;DHT22;39868;53.398;6.564;2024-03-25T02:37:40;9.10;80.80
53962;DHT22;39868;53.398;6.564;2024-03-25T02:40:08;9.10;81.00
53962;DHT22;39868;53.398;6.564;2024-03-25T02:42:36;9.10;81.40
53962;DHT22;39868;53.398;6.564;2024-03-25T02:45:03;9.10;80.90
53962;DHT22;39868;53.398;6.564;2024-03-25T02:47:29;9.10;81.10
53962;DHT22;39868;53.398;6.564;2024-03-25T02:49:55;9.10;81.30
53962;DHT22;39868;53.398;6.564;2024-03-25T02:52:22;9.10;81.60
53962;DHT22;39868;53.398;6.564;2024-03-25T02:54:48;9.10;81.60
53962;DHT22;39868;53.398;6.564;2024-03-25T02:57:14;9.10;81.70
53962;DHT22;39868;53.398;6.564;2024-03-25T02:59:40;9.10;81.70
53962;DHT22;39868;53.398;6.564;2024-03-25T03:02:06;9.10;81.80
53962;DHT22;39868;53.398;6.564;2024-03-25T03:04:33;9.10;81.80
53962;DHT22;39868;53.398;6.564;2024-03-25T03:06:59;9.10;82.40
53962;DHT22;39868;53.398;6.564;2024-03-25T03:09:25;9.10;81.90
53962;DHT22;39868;53.398;6.564;2024-03-25T03:11:51;9.10;82.00
53962;DHT22;39868;53.398;6.564;2024-03-25T03:14:18;9.10;82.10
53962;DHT22;39868;53.398;6.564;2024-03-25T03:16:44;9.10;82.20
53962;DHT22;39868;53.398;6.564;2024-03-25T03:19:10;9.10;81.90
53962;DHT22;39868;53.398;6.564;2024-03-25T03:21:36;9.00;81.80
53962;DHT22;39868;53.398;6.564;2024-03-25T03:24:03;9.00;81.80
53962;DHT22;39868;53.398;6.564;2024-03-25T03:26:30;9.00;81.50
53962;DHT22;39868;53.398;6.564;2024-03-25T03:28:57;9.00;81.00
53962;DHT22;39868;53.398;6.564;2024-03-25T03:31:23;9.00;80.80
53962;DHT22;39868;53.398;6.564;2024-03-25T03:33:50;9.00;80.80
53962;DHT22;39868;53.398;6.564;2024-03-25T03:36:18;9.00;80.80
53962;DHT22;39868;53.398;6.564;2024-03-25T03:38:45;9.10;80.80
53962;DHT22;39868;53.398;6.564;2024-03-25T03:41:11;9.10;80.80
53962;DHT22;39868;53.398;6.564;2024-03-25T03:43:37;9.10;80.90
53962;DHT22;39868;53.398;6.564;2024-03-25T03:46:04;9.10;81.00
53962;DHT22;39868;53.398;6.564;2024-03-25T03:48:30;9.10;81.10
53962;DHT22;39868;53.398;6.564;2024-03-25T03:50:57;9.10;81.30
53962;DHT22;39868;53.398;6.564;2024-03-25T03:53:23;9.10;81.30
53962;DHT22;39868;53.398;6.564;2024-03-25T03:55:56;9.10;81.40
53962;DHT22;39868;53.398;6.564;2024-03-25T03:58:23;9.10;81.50
53962;DHT22;39868;53.398;6.564;2024-03-25T04:00:49;9.10;81.50
53962;DHT22;39868;53.398;6.564;2024-03-25T04:03:16;9.10;81.40
53962;DHT22;39868;53.398;6.564;2024-03-25T04:05:43;9.10;81.30
53962;DHT22;39868;53.398;6.564;2024-03-25T04:08:09;9.10;81.30
53962;DHT22;39868;53.398;6.564;2024-03-25T04:10:35;9.10;81.10
53962;DHT22;39868;53.398;6.564;2024-03-25T04:13:03;9.10;81.00
53962;DHT22;39868;53.398;6.564;2024-03-25T04:15:32;9.10;80.90
53962;DHT22;39868;53.398;6.564;2024-03-25T04:17:58;9.10;80.80
53962;DHT22;39868;53.398;6.564;2024-03-25T04:20:24;9.10;80.80
53962;DHT22;39868;53.398;6.564;2024-03-25T04:22:50;9.10;80.60
53962;DHT22;39868;53.398;6.564;2024-03-25T04:25:16;9.10;80.70
53962;DHT22;39868;53.398;6.564;2024-03-25T04:27:43;9.10;80.70
53962;DHT22;39868;53.398;6.564;2024-03-25T04:30:10;9.10;80.80
53962;DHT22;39868;53.398;6.564;2024-03-25T04:32:40;9.10;80.90
53962;DHT22;39868;53.398;6.564;2024-03-25T04:35:08;9.10;80.80
53962;DHT22;39868;53.398;6.564;2024-03-25T04:37:35;9.10;80.80
53962;DHT22;39868;53.398;6.564;2024-03-25T04:40:02;9.10;80.90
53962;DHT22;39868;53.398;6.564;2024-03-25T04:42:29;9.10;80.90
53962;DHT22;39868;53.398;6.564;2024-03-25T04:44:55;9.10;80.90
53962;DHT22;39868;53.398;6.564;2024-03-25T04:47:21;9.10;80.90
53962;DHT22;39868;53.398;6.564;2024-03-25T04:49:47;9.10;80.90
53962;DHT22;39868;53.398;6.564;2024-03-25T04:52:15;9.20;81.00
53962;DHT22;39868;53.398;6.564;2024-03-25T04:54:44;9.10;81.10
53962;DHT22;39868;53.398;6.564;2024-03-25T04:57:11;9.10;81.10
53962;DHT22;39868;53.398;6.564;2024-03-25T04:59:37;9.10;81.20
53962;DHT22;39868;53.398;6.564;2024-03-25T05:02:03;9.10;81.30
53962;DHT22;39868;53.398;6.564;2024-03-25T05:04:30;9.20;81.40
53962;DHT22;39868;53.398;6.564;2024-03-25T05:06:57;9.20;81.50
53962;DHT22;39868;53.398;6.564;2024-03-25T05:09:23;9.10;81.40
53962;DHT22;39868;53.398;6.564;2024-03-25T05:11:49;9.10;81.50
53962;DHT22;39868;53.398;6.564;2024-03-25T05:14:15;9.10;81.40
53962;DHT22;39868;53.398;6.564;2024-03-25T05:16:41;9.10;81.50
53962;DHT22;39868;53.398;6.564;2024-03-25T05:19:08;9.10;81.50
53962;DHT22;39868;53.398;6.564;2024-03-25T05:21:34;9.10;81.50
53962;DHT22;39868;53.398;6.564;2024-03-25T05:24:00;9.10;81.60
53962;DHT22;39868;53.398;6.564;2024-03-25T05:26:26;9.10;81.60
53962;DHT22;39868;53.398;6.564;2024-03-25T05:28:53;9.10;81.60
53962;DHT22;39868;53.398;6.564;2024-03-25T05:31:20;9.10;81.60
53962;DHT22;39868;53.398;6.564;2024-03-25T05:33:46;9.10;81.60
53962;DHT22;39868;53.398;6.564;2024-03-25T05:36:12;9.10;81.50
53962;DHT22;39868;53.398;6.564;2024-03-25T05:38:39;9.10;81.50
53962;DHT22;39868;53.398;6.564;2024-03-25T05:41:05;9.00;81.40
53962;DHT22;39868;53.398;6.564;2024-03-25T05:43:31;9.00;81.30
53962;DHT22;39868;53.398;6.564;2024-03-25T05:45:58;9.00;81.30
53962;DHT22;39868;53.398;6.564;2024-03-25T05:48:25;9.00;81.20
53962;DHT22;39868;53.398;6.564;2024-03-25T05:51:01;9.00;81.20
53962;DHT22;39868;53.398;6.564;2024-03-25T05:53:28;8.90;81.20
53962;DHT22;39868;53.398;6.564;2024-03-25T05:55:55;8.90;81.30
53962;DHT22;39868;53.398;6.564;2024-03-25T05:58:22;9.00;81.40
53962;DHT22;39868;53.398;6.564;2024-03-25T06:00:49;9.00;81.40
53962;DHT22;39868;53.398;6.564;2024-03-25T06:03:16;9.00;81.50
53962;DHT22;39868;53.398;6.564;2024-03-25T06:05:42;9.00;81.50
53962;DHT22;39868;53.398;6.564;2024-03-25T06:08:09;9.00;81.60
53962;DHT22;39868;53.398;6.564;2024-03-25T06:10:44;9.10;81.70
53962;DHT22;39868;53.398;6.564;2024-03-25T06:13:10;9.10;81.70
53962;DHT22;39868;53.398;6.564;2024-03-25T06:15:36;9.10;81.80
53962;DHT22;39868;53.398;6.564;2024-03-25T06:18:03;9.10;81.80
53962;DHT22;39868;53.398;6.564;2024-03-25T06:20:29;9.10;81.70
53962;DHT22;39868;53.398;6.564;2024-03-25T06:22:55;9.20;81.70
53962;DHT22;39868;53.398;6.564;2024-03-25T06:25:21;9.20;81.80
53962;DHT22;39868;53.398;6.564;2024-03-25T06:27:47;9.20;81.80
53962;DHT22;39868;53.398;6.564;2024-03-25T06:30:14;9.20;81.90
53962;DHT22;39868;53.398;6.564;2024-03-25T06:32:58;9.20;81.90
53962;DHT22;39868;53.398;6.564;2024-03-25T06:35:44;9.30;82.00
53962;DHT22;39868;53.398;6.564;2024-03-25T06:38:11;9.30;82.00
53962;DHT22;39868;53.398;6.564;2024-03-25T06:40:38;9.30;82.10
53962;DHT22;39868;53.398;6.564;2024-03-25T06:43:04;9.30;82.20
53962;DHT22;39868;53.398;6.564;2024-03-25T06:45:31;9.30;82.10
53962;DHT22;39868;53.398;6.564;2024-03-25T06:47:57;9.30;82.20
53962;DHT22;39868;53.398;6.564;2024-03-25T06:50:24;9.40;82.20
53962;DHT22;39868;53.398;6.564;2024-03-25T06:52:50;9.40;82.30
53962;DHT22;39868;53.398;6.564;2024-03-25T06:55:17;9.50;82.40
53962;DHT22;39868;53.398;6.564;2024-03-25T06:57:48;9.50;82.40
53962;DHT22;39868;53.398;6.564;2024-03-25T07:00:15;9.60;82.50
53962;DHT22;39868;53.398;6.564;2024-03-25T07:02:41;9.60;83.10
53962;DHT22;39868;53.398;6.564;2024-03-25T07:05:08;9.60;82.60
53962;DHT22;39868;53.398;6.564;2024-03-25T07:07:34;9.70;82.60
53962;DHT22;39868;53.398;6.564;2024-03-25T07:10:01;9.70;82.60
53962;DHT22;39868;53.398;6.564;2024-03-25T07:12:27;9.70;82.60
53962;DHT22;39868;53.398;6.564;2024-03-25T07:14:54;9.80;82.70
53962;DHT22;39868;53.398;6.564;2024-03-25T07:17:20;9.90;82.80
53962;DHT22;39868;53.398;6.564;2024-03-25T07:19:51;9.90;82.80
53962;DHT22;39868;53.398;6.564;2024-03-25T07:22:18;10.00;82.90
53962;DHT22;39868;53.398;6.564;2024-03-25T07:24:44;10.10;82.90
53962;DHT22;39868;53.398;6.564;2024-03-25T07:27:11;10.10;82.70
53962;DHT22;39868;53.398;6.564;2024-03-25T07:29:37;10.10;82.70
53962;DHT22;39868;53.398;6.564;2024-03-25T07:32:04;10.20;82.60
53962;DHT22;39868;53.398;6.564;2024-03-25T07:34:30;10.20;82.50
53962;DHT22;39868;53.398;6.564;2024-03-25T07:36:56;10.20;82.40
53962;DHT22;39868;53.398;6.564;2024-03-25T07:39:23;10.30;82.40
53962;DHT22;39868;53.398;6.564;2024-03-25T07:41:53;10.30;82.30
53962;DHT22;39868;53.398;6.564;2024-03-25T07:44:19;10.30;82.30
53962;DHT22;39868;53.398;6.564;2024-03-25T07:46:46;10.30;82.20
53962;DHT22;39868;53.398;6.564;2024-03-25T07:49:12;10.40;82.30
53962;DHT22;39868;53.398;6.564;2024-03-25T07:51:38;10.40;82.30
53962;DHT22;39868;53.398;6.564;2024-03-25T07:54:05;10.50;82.20
53962;DHT22;39868;53.398;6.564;2024-03-25T07:56:32;10.50;82.10
53962;DHT22;39868;53.398;6.564;2024-03-25T07:59:03;10.50;82.00
53962;DHT22;39868;53.398;6.564;2024-03-25T08:01:29;10.60;81.80
53962;DHT22;39868;53.398;6.564;2024-03-25T08:03:56;10.60;81.60
53962;DHT22;39868;53.398;6.564;2024-03-25T08:06:22;10.70;81.60
53962;DHT22;39868;53.398;6.564;2024-03-25T08:08:48;10.80;81.60
53962;DHT22;39868;53.398;6.564;2024-03-25T08:11:15;10.80;81.50
53962;DHT22;39868;53.398;6.564;2024-03-25T08:13:41;10.90;81.20
53962;DHT22;39868;53.398;6.564;2024-03-25T08:16:07;11.20;81.00
53962;DHT22;39868;53.398;6.564;2024-03-25T08:18:34;12.00;79.90
53962;DHT22;39868;53.398;6.564;2024-03-25T08:21:00;12.90;78.60
53962;DHT22;39868;53.398;6.564;2024-03-25T08:23:26;13.70;77.70
53962;DHT22;39868;53.398;6.564;2024-03-25T08:25:52;14.00;77.60
53962;DHT22;39868;53.398;6.564;2024-03-25T08:28:18;14.00;78.30
53962;DHT22;39868;53.398;6.564;2024-03-25T08:30:44;14.20;78.30
53962;DHT22;39868;53.398;6.564;2024-03-25T08:33:11;14.60;77.90
53962;DHT22;39868;53.398;6.564;2024-03-25T08:35:38;14.90;77.30
53962;DHT22;39868;53.398;6.564;2024-03-25T08:38:04;14.80;77.10
53962;DHT22;39868;53.398;6.564;2024-03-25T08:40:30;14.80;76.40
53962;DHT22;39868;53.398;6.564;2024-03-25T08:42:56;15.10;75.80
53962;DHT22;39868;53.398;6.564;2024-03-25T08:45:23;15.60;74.70
53962;DHT22;39868;53.398;6.564;2024-03-25T08:47:49;15.80;75.00
53962;DHT22;39868;53.398;6.564;2024-03-25T08:50:16;16.00;75.00
53962;DHT22;39868;53.398;6.564;2024-03-25T08:52:42;16.30;74.80
53962;DHT22;39868;53.398;6.564;2024-03-25T08:55:08;16.30;74.40
53962;DHT22;39868;53.398;6.564;2024-03-25T08:57:35;16.10;75.30
53962;DHT22;39868;53.398;6.564;2024-03-25T09:00:02;16.00;74.60
53962;DHT22;39868;53.398;6.564;2024-03-25T09:02:30;16.00;74.90
53962;DHT22;39868;53.398;6.564;2024-03-25T09:04:56;16.00;74.80
53962;DHT22;39868;53.398;6.564;2024-03-25T09:07:22;15.90;75.10
53962;DHT22;39868;53.398;6.564;2024-03-25T09:09:49;15.80;73.90
53962;DHT22;39868;53.398;6.564;2024-03-25T09:12:33;15.70;73.80
53962;DHT22;39868;53.398;6.564;2024-03-25T09:14:59;15.60;72.50
53962;DHT22;39868;53.398;6.564;2024-03-25T09:17:26;15.50;72.80
53962;DHT22;39868;53.398;6.564;2024-03-25T09:19:52;15.30;73.60
53962;DHT22;39868;53.398;6.564;2024-03-25T09:22:18;15.20;73.70
53962;DHT22;39868;53.398;6.564;2024-03-25T09:24:44;15.10;74.10
53962;DHT22;39868;53.398;6.564;2024-03-25T09:27:11;15.00;73.70
53962;DHT22;39868;53.398;6.564;2024-03-25T09:29:37;14.90;73.60
53962;DHT22;39868;53.398;6.564;2024-03-25T09:32:03;14.80;73.10
53962;DHT22;39868;53.398;6.564;2024-03-25T09:34:30;14.70;73.50
53962;DHT22;39868;53.398;6.564;2024-03-25T09:36:56;14.70;73.70
53962;DHT22;39868;53.398;6.564;2024-03-25T09:39:22;14.70;73.40
53962;DHT22;39868;53.398;6.564;2024-03-25T09:41:51;14.50;72.90
53962;DHT22;39868;53.398;6.564;2024-03-25T09:44:19;14.40;72.90
53962;DHT22;39868;53.398;6.564;2024-03-25T09:46:49;14.30;73.00
53962;DHT22;39868;53.398;6.564;2024-03-25T09:49:17;14.10;73.00
53962;DHT22;39868;53.398;6.564;2024-03-25T09:51:43;14.00;72.80
53962;DHT22;39868;53.398;6.564;2024-03-25T09:54:09;13.80;73.20
53962;DHT22;39868;53.398;6.564;2024-03-25T09:56:36;13.70;73.10
53962;DHT22;39868;53.398;6.564;2024-03-25T09:59:03;13.50;73.00
53962;DHT22;39868;53.398;6.564;2024-03-25T10:01:29;13.30;73.10
53962;DHT22;39868;53.398;6.564;2024-03-25T10:03:56;13.30;73.40
53962;DHT22;39868;53.398;6.564;2024-03-25T10:06:23;13.10;73.50
53962;DHT22;39868;53.398;6.564;2024-03-25T10:08:53;13.00;74.00
53962;DHT22;39868;53.398;6.564;2024-03-25T10:11:20;13.00;74.20
53962;DHT22;39868;53.398;6.564;2024-03-25T10:13:46;12.90;74.70
53962;DHT22;39868;53.398;6.564;2024-03-25T10:16:12;12.90;75.00
53962;DHT22;39868;53.398;6.564;2024-03-25T10:18:39;12.90;75.10
53962;DHT22;39868;53.398;6.564;2024-03-25T10:21:10;12.90;75.30
53962;DHT22;39868;53.398;6.564;2024-03-25T10:23:36;13.00;75.40
53962;DHT22;39868;53.398;6.564;2024-03-25T10:26:08;13.00;75.50
53962;DHT22;39868;53.398;6.564;2024-03-25T10:28:34;13.10;75.80
53962;DHT22;39868;53.398;6.564;2024-03-25T10:31:04;13.10;75.60
53962;DHT22;39868;53.398;6.564;2024-03-25T10:33:31;13.10;75.50
53962;DHT22;39868;53.398;6.564;2024-03-25T10:35:59;13.20;75.50
53962;DHT22;39868;53.398;6.564;2024-03-25T10:38:27;13.20;75.30
53962;DHT22;39868;53.398;6.564;2024-03-25T10:40:55;13.10;75.10
53962;DHT22;39868;53.398;6.564;2024-03-25T10:43:25;13.10;75.00
53962;DHT22;39868;53.398;6.564;2024-03-25T10:45:55;13.10;74.60
53962;DHT22;39868;53.398;6.564;2024-03-25T10:48:28;13.00;75.00
53962;DHT22;39868;53.398;6.564;2024-03-25T10:50:56;13.10;75.30
53962;DHT22;39868;53.398;6.564;2024-03-25T10:53:22;13.10;75.20
53962;DHT22;39868;53.398;6.564;2024-03-25T10:55:55;13.20;75.20
53962;DHT22;39868;53.398;6.564;2024-03-25T10:58:23;13.20;75.50
53962;DHT22;39868;53.398;6.564;2024-03-25T11:00:51;13.30;75.60
53962;DHT22;39868;53.398;6.564;2024-03-25T11:03:18;13.40;74.80
53962;DHT22;39868;53.398;6.564;2024-03-25T11:05:47;13.40;74.70
53962;DHT22;39868;53.398;6.564;2024-03-25T11:08:15;13.50;74.80
53962;DHT22;39868;53.398;6.564;2024-03-25T11:10:47;13.50;74.70
53962;DHT22;39868;53.398;6.564;2024-03-25T11:13:16;13.60;74.40
53962;DHT22;39868;53.398;6.564;2024-03-25T11:15:44;13.60;74.60
53962;DHT22;39868;53.398;6.564;2024-03-25T11:18:15;13.60;74.30
53962;DHT22;39868;53.398;6.564;2024-03-25T11:20:44;13.70;73.90
53962;DHT22;39868;53.398;6.564;2024-03-25T11:23:12;13.70;74.10
53962;DHT22;39868;53.398;6.564;2024-03-25T11:25:39;13.70;74.40
53962;DHT22;39868;53.398;6.564;2024-03-25T11:28:06;13.80;74.50
53962;DHT22;39868;53.398;6.564;2024-03-25T11:30:33;13.80;74.20
53962;DHT22;39868;53.398;6.564;2024-03-25T11:33:02;13.90;74.20
53962;DHT22;39868;53.398;6.564;2024-03-25T11:35:37;13.90;73.90
53962;DHT22;39868;53.398;6.564;2024-03-25T11:38:04;13.90;73.30
53962;DHT22;39868;53.398;6.564;2024-03-25T11:40:30;13.90;73.40
53962;DHT22;39868;53.398;6.564;2024-03-25T11:42:58;14.00;73.40
53962;DHT22;39868;53.398;6.564;2024-03-25T11:45:24;14.00;73.40
53962;DHT22;39868;53.398;6.564;2024-03-25T11:47:51;14.00;73.00
53962;DHT22;39868;53.398;6.564;2024-03-25T11:50:18;14.10;73.20
53962;DHT22;39868;53.398;6.564;2024-03-25T11:52:45;14.20;73.20
53962;DHT22;39868;53.398;6.564;2024-03-25T11:55:16;14.30;72.40
53962;DHT22;39868;53.398;6.564;2024-03-25T11:57:43;14.30;72.40
53962;DHT22;39868;53.398;6.564;2024-03-25T12:00:09;14.40;72.50
53962;DHT22;39868;53.398;6.564;2024-03-25T12:02:44;14.50;72.10
53962;DHT22;39868;53.398;6.564;2024-03-25T12:05:13;14.60;71.80
53962;DHT22;39868;53.398;6.564;2024-03-25T12:07:39;14.70;73.50
53962;DHT22;39868;53.398;6.564;2024-03-25T12:10:05;14.70;72.10
53962;DHT22;39868;53.398;6.564;2024-03-25T12:12:50;14.80;71.90
53962;DHT22;39868;53.398;6.564;2024-03-25T12:15:20;14.80;71.60
53962;DHT22;39868;53.398;6.564;2024-03-25T12:17:47;14.80;71.30
53962;DHT22;39868;53.398;6.564;2024-03-25T12:20:14;14.90;71.40
53962;DHT22;39868;53.398;6.564;2024-03-25T12:22:41;14.90;70.80
53962;DHT22;39868;53.398;6.564;2024-03-25T12:25:08;14.90;70.30
53962;DHT22;39868;53.398;6.564;2024-03-25T12:27:36;15.00;69.60
53962;DHT22;39868;53.398;6.564;2024-03-25T12:30:09;14.90;70.30
53962;DHT22;39868;53.398;6.564;2024-03-25T12:32:36;14.90;70.10
53962;DHT22;39868;53.398;6.564;2024-03-25T12:35:07;14.90;71.50
53962;DHT22;39868;53.398;6.564;2024-03-25T12:37:34;14.90;70.40
53962;DHT22;39868;53.398;6.564;2024-03-25T12:40:00;14.90;70.70
53962;DHT22;39868;53.398;6.564;2024-03-25T12:42:28;14.90;70.90
53962;DHT22;39868;53.398;6.564;2024-03-25T12:44:55;14.90;71.00
53962;DHT22;39868;53.398;6.564;2024-03-25T12:47:21;15.00;70.50
53962;DHT22;39868;53.398;6.564;2024-03-25T12:49:47;15.00;70.60
53962;DHT22;39868;53.398;6.564;2024-03-25T12:52:14;15.00;70.70
53962;DHT22;39868;53.398;6.564;2024-03-25T12:54:40;15.00;69.90
53962;DHT22;39868;53.398;6.564;2024-03-25T12:57:08;15.00;70.00
53962;DHT22;39868;53.398;6.564;2024-03-25T12:59:34;15.00;69.90
53962;DHT22;39868;53.398;6.564;2024-03-25T13:02:00;15.00;69.40
53962;DHT22;39868;53.398;6.564;2024-03-25T13:04:26;15.10;69.70
53962;DHT22;39868;53.398;6.564;2024-03-25T13:06:53;15.00;69.90
53962;DHT22;39868;53.398;6.564;2024-03-25T13:09:19;15.10;70.10
53962;DHT22;39868;53.398;6.564;2024-03-25T13:11:45;15.20;70.70
53962;DHT22;39868;53.398;6.564;2024-03-25T13:14:12;15.10;70.00
53962;DHT22;39868;53.398;6.564;2024-03-25T13:16:39;15.20;69.70
53962;DHT22;39868;53.398;6.564;2024-03-25T13:19:06;15.20;70.20
53962;DHT22;39868;53.398;6.564;2024-03-25T13:21:33;15.20;69.70
53962;DHT22;39868;53.398;6.564;2024-03-25T13:23:59;15.20;69.10
53962;DHT22;39868;53.398;6.564;2024-03-25T13:26:26;15.30;68.40
53962;DHT22;39868;53.398;6.564;2024-03-25T13:28:53;15.20;69.50
53962;DHT22;39868;53.398;6.564;2024-03-25T13:31:19;15.20;68.90
53962;DHT22;39868;53.398;6.564;2024-03-25T13:33:45;15.20;69.00
53962;DHT22;39868;53.398;6.564;2024-03-25T13:36:12;15.20;69.30
53962;DHT22;39868;53.398;6.564;2024-03-25T13:38:38;15.20;69.20
53962;DHT22;39868;53.398;6.564;2024-03-25T13:41:04;15.20;68.80
53962;DHT22;39868;53.398;6.564;2024-03-25T13:43:32;15.10;68.80
53962;DHT22;39868;53.398;6.564;2024-03-25T13:45:58;15.10;69.30
53962;DHT22;39868;53.398;6.564;2024-03-25T13:48:24;15.00;69.30
53962;DHT22;39868;53.398;6.564;2024-03-25T13:50:53;15.10;69.30
53962;DHT22;39868;53.398;6.564;2024-03-25T13:53:20;15.00;69.40
53962;DHT22;39868;53.398;6.564;2024-03-25T13:55:46;15.00;69.10
53962;DHT22;39868;53.398;6.564;2024-03-25T13:58:13;14.90;68.00
53962;DHT22;39868;53.398;6.564;2024-03-25T14:00:39;15.00;67.80
53962;DHT22;39868;53.398;6.564;2024-03-25T14:03:06;14.90;67.90
53962;DHT22;39868;53.398;6.564;2024-03-25T14:05:32;14.90;68.00
53962;DHT22;39868;53.398;6.564;2024-03-25T14:07:59;14.90;68.10
53962;DHT22;39868;53.398;6.564;2024-03-25T14:10:25;14.90;68.00
53962;DHT22;39868;53.398;6.564;2024-03-25T14:12:51;14.90;67.90
53962;DHT22;39868;53.398;6.564;2024-03-25T14:15:17;14.90;67.30
53962;DHT22;39868;53.398;6.564;2024-03-25T14:17:44;14.90;66.30
53962;DHT22;39868;53.398;6.564;2024-03-25T14:20:10;14.90;66.90
53962;DHT22;39868;53.398;6.564;2024-03-25T14:22:37;14.90;65.80
53962;DHT22;39868;53.398;6.564;2024-03-25T14:25:03;15.00;66.70
53962;DHT22;39868;53.398;6.564;2024-03-25T14:27:29;15.00;66.70
53962;DHT22;39868;53.398;6.564;2024-03-25T14:29:56;15.00;66.70
53962;DHT22;39868;53.398;6.564;2024-03-25T14:32:22;15.00;66.20
53962;DHT22;39868;53.398;6.564;2024-03-25T14:34:49;15.10;66.20
53962;DHT22;39868;53.398;6.564;2024-03-25T14:37:15;15.10;66.10
53962;DHT22;39868;53.398;6.564;2024-03-25T14:39:42;15.10;66.40
53962;DHT22;39868;53.398;6.564;2024-03-25T14:42:08;15.10;66.40
53962;DHT22;39868;53.398;6.564;2024-03-25T14:44:38;15.20;66.60
53962;DHT22;39868;53.398;6.564;2024-03-25T14:47:04;15.30;66.10
53962;DHT22;39868;53.398;6.564;2024-03-25T14:49:31;15.30;66.00
53962;DHT22;39868;53.398;6.564;2024-03-25T14:51:57;15.40;65.50
53962;DHT22;39868;53.398;6.564;2024-03-25T14:54:37;15.50;65.60
53962;DHT22;39868;53.398;6.564;2024-03-25T14:57:04;15.50;65.60
53962;DHT22;39868;53.398;6.564;2024-03-25T14:59:31;15.60;66.00
53962;DHT22;39868;53.398;6.564;2024-03-25T15:02:01;15.60;66.60
53962;DHT22;39868;53.398;6.564;2024-03-25T15:04:30;15.70;66.10
53962;DHT22;39868;53.398;6.564;2024-03-25T15:06:57;15.80;65.60
53962;DHT22;39868;53.398;6.564;2024-03-25T15:09:24;15.80;64.50
53962;DHT22;39868;53.398;6.564;2024-03-25T15:11:50;16.00;65.10
53962;DHT22;39868;53.398;6.564;2024-03-25T15:14:17;16.00;65.50
53962;DHT22;39868;53.398;6.564;2024-03-25T15:16:43;16.10;65.40
53962;DHT22;39868;53.398;6.564;2024-03-25T15:19:09;16.30;65.00
53962;DHT22;39868;53.398;6.564;2024-03-25T15:21:36;16.40;65.10
53962;DHT22;39868;53.398;6.564;2024-03-25T15:24:02;16.60;65.20
53962;DHT22;39868;53.398;6.564;2024-03-25T15:26:29;16.70;63.90
53962;DHT22;39868;53.398;6.564;2024-03-25T15:28:55;16.90;62.40
53962;DHT22;39868;53.398;6.564;2024-03-25T15:31:21;16.90;61.50
53962;DHT22;39868;53.398;6.564;2024-03-25T15:33:47;17.00;61.70
53962;DHT22;39868;53.398;6.564;2024-03-25T15:36:14;17.00;61.80